createdAt,value
2022-09-10T00:01:51.944Z,25.08
2022-09-10T00:04:06.495Z,24.77
2022-09-10T00:06:20.739Z,25.52
2022-09-10T00:08:35.585Z,24.76
2022-09-10T00:10:51.740Z,24.61
2022-09-10T00:13:05.621Z,24.35
2022-09-10T00:15:21.493Z,24.72
2022-09-10T00:17:35.359Z,25.47
2022-09-10T00:19:48.844Z,25.17
2022-09-10T00:22:02.519Z,24.73
2022-09-10T00:24:16.480Z,25.10
2022-09-10T00:26:31.664Z,25.47
2022-09-10T00:28:45.770Z,26.19
2022-09-10T00:31:00.151Z,24.33
2022-09-10T00:33:14.171Z,25.26
2022-09-10T00:35:27.881Z,25.52
2022-09-10T00:37:42.038Z,25.63
2022-09-10T00:39:56.820Z,25.87
2022-09-10T00:42:13.422Z,25.51
2022-09-10T00:44:59.230Z,26.05
2022-09-10T00:47:18.837Z,25.92
2022-09-10T00:49:40.292Z,26.56
2022-09-10T00:51:56.433Z,26.69
2022-09-10T00:54:11.202Z,26.35
2022-09-10T00:56:25.229Z,25.78
2022-09-10T00:58:39.257Z,25.91
2022-09-10T01:00:55.698Z,25.22
2022-09-10T01:03:12.583Z,26.23
2022-09-10T01:05:27.303Z,26.37
2022-09-10T01:07:41.590Z,26.63
2022-09-10T01:09:55.405Z,26.58
2022-09-10T01:12:25.119Z,26.82
2022-09-10T01:14:56.007Z,26.59
2022-09-10T01:17:22.108Z,26.52
2022-09-10T01:20:02.351Z,26.90
2022-09-10T01:22:27.499Z,26.54
2022-09-10T01:24:59.969Z,27.16
2022-09-10T01:27:32.398Z,27.38
2022-09-10T01:29:56.515Z,26.97
2022-09-10T01:32:16.840Z,27.18
2022-09-10T01:34:41.641Z,27.35
2022-09-10T01:36:57.217Z,27.68
2022-09-10T01:39:11.525Z,27.67
2022-09-10T01:41:27.503Z,27.53
2022-09-10T01:43:43.257Z,27.42
2022-09-10T01:46:12.515Z,27.46
2022-09-10T01:49:02.987Z,27.52
2022-09-10T01:51:27.061Z,27.84
2022-09-10T01:53:54.342Z,28.03
2022-09-10T01:56:17.146Z,27.76
2022-09-10T01:58:38.380Z,28.14
2022-09-10T02:01:18.840Z,28.37
2022-09-10T02:03:33.890Z,28.53
2022-09-10T02:05:51.087Z,28.62
2022-09-10T02:08:08.918Z,28.47
2022-09-10T02:10:23.176Z,28.73
2022-09-10T02:12:38.161Z,28.74
2022-09-10T02:15:12.964Z,29.07
2022-09-10T02:17:44.075Z,29.08
2022-09-10T02:19:59.672Z,29.22
2022-09-10T02:22:14.336Z,29.45
2022-09-10T02:24:28.649Z,29.92
2022-09-10T02:26:44.646Z,30.25
2022-09-10T02:28:58.999Z,30.32
2022-09-10T02:31:13.069Z,30.67
2022-09-10T02:33:26.983Z,31.05
2022-09-10T02:35:40.623Z,31.19
2022-09-10T02:37:54.757Z,31.46
2022-09-10T02:40:09.422Z,31.69
2022-09-10T02:42:23.684Z,31.99
2022-09-10T02:44:37.570Z,32.13
2022-09-10T02:46:53.170Z,32.52
2022-09-10T02:49:06.986Z,32.78
2022-09-10T02:51:22.866Z,33.03
2022-09-10T02:53:37.552Z,33.46
2022-09-10T02:55:54.482Z,33.50
2022-09-10T02:58:08.475Z,33.85
2022-09-10T03:00:23.275Z,34.19
2022-09-10T03:02:37.570Z,34.42
2022-09-10T03:04:51.417Z,34.82
2022-09-10T03:07:05.283Z,35.09
2022-09-10T03:09:21.303Z,35.15
2022-09-10T03:11:36.273Z,35.61
2022-09-10T03:13:50.185Z,35.77
2022-09-10T03:16:05.244Z,36.12
2022-09-10T03:18:19.772Z,36.41
2022-09-10T03:20:33.601Z,36.80
2022-09-10T03:22:48.800Z,36.97
2022-09-10T03:25:02.839Z,37.36
2022-09-10T03:27:17.132Z,37.45
2022-09-10T03:29:31.582Z,37.70
2022-09-10T03:31:47.780Z,38.04
2022-09-10T03:34:02.288Z,38.71
2022-09-10T03:36:16.802Z,38.44
2022-09-10T03:38:30.623Z,38.63
2022-09-10T03:40:44.851Z,38.89
2022-09-10T03:42:58.875Z,39.17
2022-09-10T03:45:15.363Z,39.60
2022-09-10T03:47:30.379Z,39.80
2022-09-10T03:49:48.560Z,40.29
2022-09-10T03:52:02.744Z,40.34
2022-09-10T03:54:18.708Z,40.26
2022-09-10T03:56:33.042Z,40.16
2022-09-10T03:58:46.598Z,40.34
2022-09-10T04:01:00.294Z,40.45
2022-09-10T04:03:18.509Z,40.78
2022-09-10T04:05:32.500Z,40.82
2022-09-10T04:07:46.653Z,40.93
2022-09-10T04:10:00.498Z,41.17
2022-09-10T04:12:14.723Z,41.93
2022-09-10T04:14:28.551Z,42.30
2022-09-10T04:16:43.022Z,42.35
2022-09-10T04:19:00.279Z,42.34
2022-09-10T04:21:15.938Z,42.47
2022-09-10T04:23:30.789Z,42.09
2022-09-10T04:25:45.048Z,41.49
2022-09-10T04:27:58.824Z,41.28
2022-09-10T04:30:14.238Z,41.04
2022-09-10T04:32:28.417Z,40.91
2022-09-10T04:34:42.446Z,40.39
2022-09-10T04:36:56.836Z,40.19
2022-09-10T04:39:10.546Z,40.10
2022-09-10T04:41:24.469Z,40.14
2022-09-10T04:43:38.800Z,40.08
2022-09-10T04:45:52.873Z,40.04
2022-09-10T04:48:07.337Z,40.02
2022-09-10T04:50:23.610Z,40.00
2022-09-10T04:52:55.374Z,39.29
2022-09-10T04:55:09.601Z,39.14
2022-09-10T04:57:23.470Z,38.98
2022-09-10T04:59:39.249Z,38.59
2022-09-10T05:01:53.977Z,38.18
2022-09-10T05:04:09.385Z,38.16
2022-09-10T05:06:24.636Z,37.28
2022-09-10T05:08:38.970Z,36.93
2022-09-10T05:10:53.162Z,36.98
2022-09-10T05:13:06.807Z,36.30
2022-09-10T05:15:20.679Z,35.74
2022-09-10T05:17:34.668Z,36.16
2022-09-10T05:19:48.356Z,36.28
2022-09-10T05:22:03.334Z,35.91
2022-09-10T05:24:19.103Z,35.52
2022-09-10T05:26:32.744Z,35.06
2022-09-10T05:28:46.318Z,35.18
2022-09-10T05:31:02.182Z,34.92
2022-09-10T05:33:16.168Z,35.07
2022-09-10T05:35:30.354Z,34.66
2022-09-10T05:37:44.882Z,34.26
2022-09-10T05:39:58.859Z,34.15
2022-09-10T05:42:13.027Z,34.17
2022-09-10T05:44:26.594Z,33.64
2022-09-10T05:46:40.398Z,33.69
2022-09-10T05:49:00.987Z,32.90
2022-09-10T05:51:14.987Z,33.03
2022-09-10T05:53:29.877Z,32.98
2022-09-10T05:55:45.203Z,32.50
2022-09-10T05:57:59.733Z,32.24
2022-09-10T06:00:16.561Z,32.68
2022-09-10T06:02:40.948Z,32.54
2022-09-10T06:05:06.162Z,32.35
2022-09-10T06:07:20.256Z,32.66
2022-09-10T06:09:33.950Z,32.07
2022-09-10T06:12:04.524Z,31.82
2022-09-10T06:14:18.624Z,32.11
2022-09-10T06:16:32.507Z,31.67
2022-09-10T06:18:47.901Z,30.99
2022-09-10T06:21:11.560Z,31.60
2022-09-10T06:23:25.477Z,31.84
2022-09-10T06:25:40.014Z,31.73
2022-09-10T06:27:54.012Z,30.71
2022-09-10T06:30:07.922Z,31.39
2022-09-10T06:32:25.235Z,30.90
2022-09-10T06:34:39.183Z,31.14
2022-09-10T06:36:55.996Z,31.27
2022-09-10T06:39:11.179Z,30.97
2022-09-10T06:41:49.430Z,30.84
2022-09-10T06:44:22.636Z,30.88
2022-09-10T06:49:20.108Z,30.75
2022-09-10T06:51:35.183Z,30.22
2022-09-10T06:53:51.213Z,30.46
2022-09-10T06:56:07.153Z,29.97
2022-09-10T06:58:21.624Z,30.22
2022-09-10T07:00:35.474Z,29.75
2022-09-10T07:02:51.871Z,29.62
2022-09-10T07:05:05.574Z,29.62
2022-09-10T07:07:21.399Z,29.33
2022-09-10T07:09:36.355Z,29.64
2022-09-10T07:11:49.939Z,29.46
2022-09-10T07:14:04.208Z,29.57
2022-09-10T07:16:23.973Z,29.19
2022-09-10T07:18:39.792Z,28.70
2022-09-10T07:20:54.456Z,28.98
2022-09-10T07:23:11.092Z,29.00
2022-09-10T07:25:28.130Z,29.05
2022-09-10T07:27:53.153Z,28.75
2022-09-10T07:30:06.478Z,28.37
2022-09-10T07:32:19.916Z,28.16
2022-09-10T07:34:35.829Z,28.06
2022-09-10T07:36:52.506Z,27.60
2022-09-10T07:39:07.056Z,28.22
2022-09-10T07:41:23.459Z,26.93
2022-09-10T07:43:37.080Z,27.26
2022-09-10T07:45:50.918Z,27.66
2022-09-10T07:48:04.155Z,27.22
2022-09-10T07:50:21.515Z,27.41
2022-09-10T07:52:38.369Z,26.66
2022-09-10T07:54:51.645Z,26.62
2022-09-10T07:57:05.926Z,26.98
2022-09-10T07:59:20.380Z,26.52
2022-09-10T08:01:37.178Z,26.03
2022-09-10T08:03:51.367Z,25.17
2022-09-10T08:06:06.930Z,25.89
2022-09-10T08:08:21.218Z,26.40
2022-09-10T08:10:34.534Z,26.36
2022-09-10T08:12:48.402Z,26.06
2022-09-10T08:15:02.170Z,26.00
2022-09-10T08:17:15.594Z,25.45
2022-09-10T08:19:31.025Z,26.05
2022-09-10T08:21:45.722Z,25.77
2022-09-10T08:24:00.497Z,25.66
2022-09-10T08:26:14.785Z,25.37
2022-09-10T08:28:30.797Z,25.94
2022-09-10T08:30:44.136Z,25.44
2022-09-10T08:32:57.466Z,25.07
2022-09-10T08:35:11.412Z,24.97
2022-09-10T08:37:24.985Z,24.81
2022-09-10T08:39:38.955Z,24.82
2022-09-10T08:41:59.599Z,24.87
2022-09-10T08:44:19.317Z,25.04
2022-09-10T08:46:37.446Z,24.88
2022-09-10T08:48:56.238Z,24.00
2022-09-10T08:51:17.607Z,24.67
2022-09-10T08:53:36.192Z,23.85
2022-09-10T08:55:49.527Z,23.98
2022-09-10T08:58:07.858Z,23.90
2022-09-10T09:00:25.340Z,23.91
2022-09-10T09:02:49.746Z,23.22
2022-09-10T09:05:09.204Z,23.62
2022-09-10T09:07:25.409Z,23.49
2022-09-10T09:09:42.104Z,23.20
2022-09-10T09:12:01.772Z,22.92
2022-09-10T09:14:38.758Z,22.80
2022-09-10T09:17:07.594Z,23.13
2022-09-10T09:19:30.794Z,22.64
2022-09-10T09:21:54.133Z,22.71
2022-09-10T09:24:19.101Z,22.80
2022-09-10T09:26:40.488Z,22.77
2022-09-10T09:29:00.632Z,22.58
2022-09-10T09:31:18.967Z,22.67
2022-09-10T09:33:37.033Z,22.85
2022-09-10T09:35:55.162Z,22.68
2022-09-10T09:38:20.004Z,22.67
2022-09-10T09:40:40.068Z,22.51
2022-09-10T09:42:57.340Z,22.58
2022-09-10T09:45:20.399Z,22.41
2022-09-10T09:47:31.250Z,22.43
2022-09-10T09:49:45.104Z,21.91
2022-09-10T09:51:59.805Z,22.24
2022-09-10T09:54:56.923Z,21.81
2022-09-10T09:56:55.844Z,21.72
2022-09-10T09:59:28.008Z,21.60
2022-09-10T10:01:45.714Z,22.03
2022-09-10T10:04:05.168Z,22.07
2022-09-10T10:06:20.850Z,22.08
2022-09-10T10:08:37.382Z,21.64
2022-09-10T10:10:55.146Z,21.85
2022-09-10T10:13:08.538Z,21.78
2022-09-10T10:15:42.355Z,21.82
2022-09-10T10:17:56.243Z,21.81
2022-09-10T10:20:15.471Z,22.11
2022-09-10T10:22:32.317Z,21.89
2022-09-10T10:24:46.376Z,22.03
2022-09-10T10:26:59.840Z,21.85
2022-09-10T10:29:21.956Z,21.86
2022-09-10T10:31:45.248Z,21.91
2022-09-10T10:34:09.426Z,21.73
2022-09-10T10:36:28.979Z,21.69
2022-09-10T10:38:45.352Z,21.88
2022-09-10T10:41:10.814Z,21.79
2022-09-10T10:43:40.532Z,21.72
2022-09-10T10:46:05.720Z,22.11
2022-09-10T10:48:31.601Z,22.07
2022-09-10T10:50:54.915Z,21.87
2022-09-10T10:53:40.540Z,22.15
2022-09-10T10:56:02.323Z,21.95
2022-09-10T10:58:38.957Z,21.99
2022-09-10T11:00:56.145Z,22.20
2022-09-10T11:03:19.048Z,21.95
2022-09-10T11:05:35.915Z,22.34
2022-09-10T11:07:50.314Z,22.00
2022-09-10T11:10:08.093Z,22.17
2022-09-10T11:12:29.547Z,22.57
2022-09-10T11:14:49.893Z,22.19
2022-09-10T11:17:08.338Z,22.27
2022-09-10T11:19:28.156Z,22.55
2022-09-10T11:21:47.124Z,22.66
2022-09-10T11:24:05.818Z,22.70
2022-09-10T11:26:24.038Z,22.84
2022-09-10T11:28:40.101Z,22.82
2022-09-10T11:30:58.998Z,22.60
2022-09-10T11:33:20.106Z,22.78
2022-09-10T11:35:38.098Z,22.78
2022-09-10T11:38:00.128Z,22.89
2022-09-10T11:40:21.915Z,22.78
2022-09-10T11:42:42.238Z,22.66
2022-09-10T11:45:05.970Z,22.42
2022-09-10T11:47:25.679Z,22.84
2022-09-10T11:49:52.332Z,22.56
2022-09-10T11:52:06.147Z,22.70
2022-09-10T11:54:22.291Z,22.46
2022-09-10T11:56:47.390Z,22.68
2022-09-10T11:59:17.609Z,22.78
2022-09-10T12:01:50.611Z,22.65
2022-09-10T12:04:20.056Z,22.94
2022-09-10T12:06:40.722Z,22.75
2022-09-10T12:09:06.821Z,22.97
2022-09-10T12:11:30.809Z,23.09
2022-09-10T12:13:46.809Z,22.98
2022-09-10T12:16:04.030Z,22.83
2022-09-10T12:18:24.591Z,23.01
2022-09-10T12:20:43.383Z,23.32
2022-09-10T12:23:00.213Z,23.19
2022-09-10T12:25:30.462Z,23.08
2022-09-10T12:27:54.781Z,22.85
2022-09-10T12:30:43.725Z,23.31
2022-09-10T12:32:58.990Z,23.01
2022-09-10T12:35:40.569Z,23.13
2022-09-10T12:37:54.229Z,23.01
2022-09-10T12:40:39.707Z,23.26
2022-09-10T12:42:53.173Z,23.15
2022-09-10T12:45:06.561Z,22.88
2022-09-10T12:47:53.868Z,23.19
2022-09-10T12:50:10.211Z,23.14
2022-09-10T12:52:32.868Z,23.23
2022-09-10T12:54:55.500Z,23.11
2022-09-10T12:57:35.404Z,23.38
2022-09-10T13:00:15.092Z,23.35
2022-09-10T13:02:36.181Z,23.55
2022-09-10T13:04:56.691Z,23.46
2022-09-10T13:07:27.565Z,23.42
2022-09-10T13:09:43.397Z,23.40
2022-09-10T13:11:58.770Z,23.50
2022-09-10T13:14:20.394Z,23.51
2022-09-10T13:16:46.392Z,23.63
2022-09-10T13:19:20.739Z,23.59
2022-09-10T13:21:58.757Z,23.38
2022-09-10T13:24:49.923Z,23.48
2022-09-10T13:27:22.047Z,23.39
2022-09-10T13:29:38.493Z,23.56
2022-09-10T13:31:59.082Z,23.82
2022-09-10T13:34:32.612Z,23.57
2022-09-10T13:36:57.211Z,23.61
2022-09-10T13:39:49.573Z,23.44
2022-09-10T13:42:14.866Z,23.34
2022-09-10T13:44:48.368Z,23.54
2022-09-10T13:47:07.701Z,23.64
2022-09-10T13:49:26.371Z,23.95
2022-09-10T13:51:45.391Z,23.53
2022-09-10T13:54:00.929Z,23.83
2022-09-10T13:56:20.045Z,23.79
2022-09-10T13:58:38.537Z,23.60
2022-09-10T14:00:59.096Z,23.81
2022-09-10T14:03:24.327Z,24.12
2022-09-10T14:05:45.236Z,23.91
2022-09-10T14:08:01.382Z,23.74
2022-09-10T14:10:15.169Z,23.92
2022-09-10T14:12:31.144Z,23.62
2022-09-10T14:14:46.996Z,23.89
2022-09-10T14:17:03.154Z,23.91
2022-09-10T14:19:23.500Z,23.71
2022-09-10T14:21:37.526Z,23.89
2022-09-10T14:23:55.291Z,23.68
2022-09-10T14:26:24.504Z,23.35
2022-09-10T14:28:38.681Z,23.75
2022-09-10T14:30:54.081Z,24.03
2022-09-10T14:33:32.563Z,23.87
2022-09-10T14:35:48.048Z,23.66
2022-09-10T14:38:05.421Z,23.75
2022-09-10T14:40:25.812Z,23.38
2022-09-10T14:42:40.544Z,24.09
2022-09-10T14:44:53.904Z,23.94
2022-09-10T14:47:26.271Z,23.97
2022-09-10T14:49:42.623Z,23.84
2022-09-10T14:51:56.024Z,23.64
2022-09-10T14:54:09.368Z,23.90
2022-09-10T14:56:34.656Z,23.65
2022-09-10T14:58:47.995Z,23.37
2022-09-10T15:01:01.667Z,23.85
2022-09-10T15:03:20.161Z,23.33
2022-09-10T15:05:33.897Z,23.49
2022-09-10T15:07:47.217Z,23.48
2022-09-10T15:10:00.421Z,23.60
2022-09-10T15:12:16.601Z,23.57
2022-09-10T15:14:30.733Z,23.47
2022-09-10T15:16:44.203Z,23.49
2022-09-10T15:18:57.649Z,23.36
2022-09-10T15:21:13.649Z,23.12
2022-09-10T15:23:26.912Z,23.41
2022-09-10T15:25:44.690Z,23.44
2022-09-10T15:27:57.855Z,23.30
2022-09-10T15:30:12.604Z,23.26
2022-09-10T15:32:25.829Z,23.36
2022-09-10T15:34:39.009Z,23.38
2022-09-10T15:36:54.242Z,23.36
2022-09-10T15:39:08.162Z,23.17
2022-09-10T15:41:21.678Z,23.05
2022-09-10T15:43:39.423Z,23.16
2022-09-10T15:45:53.068Z,23.28
2022-09-10T15:48:07.763Z,23.30
2022-09-10T15:50:21.182Z,23.49
2022-09-10T15:52:34.613Z,23.47
2022-09-10T15:54:48.061Z,23.08
2022-09-10T15:57:02.382Z,23.10
2022-09-10T15:59:17.703Z,23.00
2022-09-10T16:01:32.155Z,23.19
2022-09-10T16:03:47.829Z,23.21
2022-09-10T16:06:05.456Z,22.98
2022-09-10T16:08:18.745Z,23.37
2022-09-10T16:10:32.205Z,23.27
2022-09-10T16:12:45.425Z,23.00
2022-09-10T16:14:58.787Z,23.22
2022-09-10T16:17:12.496Z,23.00
2022-09-10T16:19:25.816Z,23.06
2022-09-10T16:21:41.021Z,23.26
2022-09-10T16:23:55.528Z,23.00
2022-09-10T16:26:09.226Z,22.92
2022-09-10T16:28:22.725Z,22.66
2022-09-10T16:30:36.329Z,23.12
2022-09-10T16:32:49.830Z,23.17
2022-09-10T16:35:05.353Z,22.63
2022-09-10T16:37:18.483Z,22.94
2022-09-10T16:39:32.475Z,22.93
2022-09-10T16:41:46.856Z,22.68
2022-09-10T16:44:01.741Z,22.75
2022-09-10T16:46:16.150Z,23.12
2022-09-10T16:48:29.451Z,23.22
2022-09-10T16:50:42.769Z,22.96
2022-09-10T16:52:56.717Z,23.07
2022-09-10T16:55:10.554Z,23.17
2022-09-10T16:57:23.825Z,23.15
2022-09-10T16:59:37.776Z,23.22
2022-09-10T17:01:52.855Z,23.27
2022-09-10T17:04:08.034Z,23.11
2022-09-10T17:06:26.016Z,23.26
2022-09-10T17:08:40.310Z,23.08
2022-09-10T17:10:53.658Z,23.14
2022-09-10T17:13:07.265Z,23.11
2022-09-10T17:15:20.681Z,23.09
2022-09-10T17:17:34.344Z,23.13
2022-09-10T17:19:48.080Z,23.05
2022-09-10T17:22:01.952Z,23.19
2022-09-10T17:24:16.743Z,23.41
2022-09-10T17:26:30.198Z,23.61
2022-09-10T17:28:44.230Z,23.60
2022-09-10T17:31:01.339Z,23.25
2022-09-10T17:33:14.668Z,23.51
2022-09-10T17:35:28.119Z,23.38
2022-09-10T17:37:41.987Z,23.79
2022-09-10T17:39:55.323Z,23.47
2022-09-10T17:42:08.767Z,23.45
2022-09-10T17:44:22.112Z,23.29
2022-09-10T17:46:36.652Z,23.39
2022-09-10T17:48:50.028Z,23.70
2022-09-10T17:51:03.494Z,23.53
2022-09-10T17:53:16.920Z,23.57
2022-09-10T17:55:33.522Z,23.27
2022-09-10T17:57:46.958Z,23.76
2022-09-10T18:00:00.175Z,23.34
2022-09-10T18:02:16.645Z,23.52
2022-09-10T18:04:29.998Z,23.59
2022-09-10T18:06:46.911Z,23.14
2022-09-10T18:09:03.997Z,23.30
2022-09-10T18:11:19.881Z,23.25
2022-09-10T18:13:33.264Z,23.53
2022-09-10T18:15:48.201Z,23.49
2022-09-10T18:18:02.646Z,23.31
2022-09-10T18:20:16.555Z,23.53
2022-09-10T18:22:30.439Z,23.80
2022-09-10T18:24:43.838Z,23.51
2022-09-10T18:26:58.549Z,23.81
2022-09-10T18:29:15.424Z,23.49
2022-09-10T18:31:30.540Z,23.58
2022-09-10T18:33:45.047Z,23.58
2022-09-10T18:35:58.222Z,23.72
2022-09-10T18:38:11.568Z,23.84
2022-09-10T18:40:25.250Z,23.82
2022-09-10T18:42:38.596Z,23.47
2022-09-10T18:44:51.832Z,23.77
2022-09-10T18:47:17.796Z,23.44
2022-09-10T18:49:40.248Z,23.71
2022-09-10T18:51:54.044Z,23.71
2022-09-10T18:54:07.927Z,23.74
2022-09-10T18:56:22.956Z,23.64
2022-09-10T18:58:37.177Z,23.77
2022-09-10T19:00:50.566Z,23.86
2022-09-10T19:03:03.956Z,23.81
2022-09-10T19:05:17.456Z,23.94
2022-09-10T19:07:30.895Z,23.89
2022-09-10T19:09:44.496Z,23.96
2022-09-10T19:11:58.706Z,23.80
2022-09-10T19:14:17.231Z,23.95
2022-09-10T19:16:31.771Z,23.86
2022-09-10T19:18:45.173Z,23.49
2022-09-10T19:20:58.631Z,23.80
2022-09-10T19:23:12.355Z,23.84
2022-09-10T19:25:25.953Z,23.94
2022-09-10T19:27:39.455Z,24.16
2022-09-10T19:29:53.132Z,23.89
2022-09-10T19:32:07.785Z,23.89
2022-09-10T19:34:22.713Z,23.74
2022-09-10T19:36:37.106Z,23.55
2022-09-10T19:38:50.564Z,23.69
2022-09-10T19:41:12.079Z,23.74
2022-09-10T19:43:25.450Z,23.99
2022-09-10T19:45:38.868Z,24.09
2022-09-10T19:47:52.206Z,24.01
2022-09-10T19:50:07.073Z,23.97
2022-09-10T19:52:20.496Z,23.32
2022-09-10T19:54:33.998Z,23.04
2022-09-10T19:56:48.043Z,22.97
2022-09-10T19:59:03.654Z,23.27
2022-09-10T20:01:18.305Z,23.61
2022-09-10T20:03:31.593Z,23.65
2022-09-10T20:05:45.716Z,23.80
2022-09-10T20:07:59.165Z,24.23
2022-09-10T20:10:13.510Z,23.96
2022-09-10T20:12:26.887Z,24.02
2022-09-10T20:14:41.086Z,24.42
2022-09-10T20:16:55.916Z,25.23
2022-09-10T20:19:12.087Z,25.78
2022-09-10T20:21:26.730Z,26.60
2022-09-10T20:23:42.246Z,27.31
2022-09-10T20:25:55.751Z,28.01
2022-09-10T20:28:09.337Z,28.88
2022-09-10T20:30:23.169Z,29.41
2022-09-10T20:32:36.392Z,29.92
2022-09-10T20:34:49.656Z,30.13
2022-09-10T20:37:03.004Z,30.74
2022-09-10T20:39:18.914Z,30.98
2022-09-10T20:41:33.059Z,32.34
2022-09-10T20:43:46.642Z,32.43
2022-09-10T20:46:00.189Z,32.95
2022-09-10T20:48:13.425Z,33.23
2022-09-10T20:50:27.916Z,33.49
2022-09-10T20:52:41.199Z,33.88
2022-09-10T20:54:54.509Z,33.45
2022-09-10T20:57:08.649Z,33.05
2022-09-10T20:59:26.959Z,33.11
2022-09-10T21:01:45.259Z,33.02
2022-09-10T21:04:01.258Z,33.05
2022-09-10T21:06:15.368Z,32.86
2022-09-10T21:08:28.819Z,32.77
2022-09-10T21:10:43.329Z,33.54
2022-09-10T21:12:56.710Z,33.96
2022-09-10T21:15:10.628Z,34.17
2022-09-10T21:17:23.963Z,34.80
2022-09-10T21:19:37.279Z,35.12
2022-09-10T21:21:51.831Z,35.27
2022-09-10T21:24:06.610Z,35.57
2022-09-10T21:26:21.919Z,35.58
2022-09-10T21:28:36.628Z,35.82
2022-09-10T21:30:50.364Z,35.88
2022-09-10T21:33:03.671Z,36.19
2022-09-10T21:35:17.612Z,36.61
2022-09-10T21:37:31.017Z,36.74
2022-09-10T21:39:44.985Z,37.20
2022-09-10T21:41:58.577Z,37.28
2022-09-10T21:44:15.354Z,37.59
2022-09-10T21:46:29.144Z,37.84
2022-09-10T21:48:43.376Z,38.05
2022-09-10T21:51:06.426Z,38.37
2022-09-10T21:53:20.893Z,38.34
2022-09-10T21:55:34.125Z,38.51
2022-09-10T21:57:47.752Z,38.55
2022-09-10T22:00:01.320Z,38.70
2022-09-10T22:02:15.176Z,38.64
2022-09-10T22:04:28.699Z,38.91
2022-09-10T22:06:42.037Z,39.23
2022-09-10T22:08:59.290Z,39.50
2022-09-10T22:11:15.576Z,39.57
2022-09-10T22:13:29.669Z,39.83
2022-09-10T22:15:46.548Z,40.15
2022-09-10T22:18:01.203Z,40.44
2022-09-10T22:20:15.563Z,40.55
2022-09-10T22:22:29.296Z,40.94
2022-09-10T22:24:42.661Z,40.93
2022-09-10T22:26:56.254Z,41.26
2022-09-10T22:29:09.640Z,41.67
2022-09-10T22:31:25.155Z,41.82
2022-09-10T22:33:39.299Z,41.76
2022-09-10T22:35:53.103Z,41.97
2022-09-10T22:38:06.373Z,42.23
2022-09-10T22:40:19.860Z,42.44
2022-09-10T22:42:33.394Z,42.56
2022-09-10T22:44:46.650Z,42.94
2022-09-10T22:47:01.046Z,42.87
2022-09-10T22:49:16.633Z,42.92
2022-09-10T22:51:31.196Z,43.25
2022-09-10T22:53:45.471Z,43.53
2022-09-10T22:55:59.620Z,43.87
2022-09-10T22:58:13.611Z,43.76
2022-09-10T23:00:27.819Z,44.20
2022-09-10T23:02:41.079Z,44.39
2022-09-10T23:04:54.409Z,44.43
2022-09-10T23:07:08.149Z,44.51
2022-09-10T23:09:21.917Z,44.90
2022-09-10T23:11:36.389Z,44.83
2022-09-10T23:13:51.231Z,45.05
2022-09-10T23:16:04.620Z,44.89
2022-09-10T23:18:18.203Z,45.12
2022-09-10T23:20:32.197Z,45.25
2022-09-10T23:22:45.540Z,45.23
2022-09-10T23:24:59.451Z,45.20
2022-09-10T23:27:13.028Z,45.42
2022-09-10T23:29:26.487Z,45.44
2022-09-10T23:31:42.003Z,45.55
2022-09-10T23:34:00.525Z,45.43
2022-09-10T23:36:14.769Z,45.34
2022-09-10T23:38:28.851Z,45.13
2022-09-10T23:40:42.388Z,45.31
2022-09-10T23:42:55.717Z,45.21
2022-09-10T23:45:09.772Z,45.19
2022-09-10T23:47:22.984Z,45.19
2022-09-10T23:49:36.721Z,45.05
2022-09-10T23:51:50.195Z,45.15
2022-09-10T23:54:03.941Z,45.30
2022-09-10T23:56:18.351Z,45.59
2022-09-10T23:58:32.040Z,45.60
